Impacts TAF Board
For situational awareness. Not to be used for flight planning purposes.
IDs:

KMIA - Miami Intl, FL, US

Issued at 2102 UTC 02 Oct 2022
Updated at 2206 UTC 02 Oct 2022
Potential Impact None Slight Moderate High
Time<<03/11Z 03/12Z 03/13Z 03/14Z 03/15Z 03/16Z 03/17Z 03/18Z 03/19Z 03/20Z 03/21Z 03/22Z 03/23Z>>
Type PRVL PRVL PRVL PRVL PRVL PRVL PRVL PRVL PRVL PRVL PRVL PRVL PRVL
VIS >6 >6 >6 >6 >6 >6 >6 >6 >6 >6 >6 >6 >6
CIG -- -- -- -- -- -- -- -- -- -- -- -- --
Cover SCT SCT SCT SCT SCT SCT SCT SCT SCT SCT SCT SCT SCT
FltCat VFR VFR VFR VFR VFR VFR VFR VFR VFR VFR VFR VFR VFR
WX -- -- -- -- -- -- -- -- -- -- -- -- --
WDir VRB VRB 330 330 330 330 330 30 30 30 30 30 30
WSpd 3 3 5 5 5 5 5 10 10 10 10 10 10
WGst -- -- -- -- -- -- -- -- -- -- -- -- --
WSHgt -- -- -- -- -- -- -- -- -- -- -- -- --
WSDir -- -- -- -- -- -- -- -- -- -- -- -- --
WSSpd -- -- -- -- -- -- -- -- -- -- -- -- --
Raw TAF
KMIA 022102Z 0221/0324 VRB06KT P6SM SCT045 BKN070
  FM030000 VRB03KT P6SM FEW030 SCT250
  FM031300 33005KT P6SM FEW035 SCT060
  FM031800 03010KT P6SM SCT035 SCT060


METAR Board
Radar Display
Forecast Discussion
For situational awareness. Not to be used for flight planning purposes.